首页
METAR-TAF:

METAR-TAF

机场 :

Coatesville, 宾夕法尼亚州, 美国

纬度: 39-58-44N, 经度: 075-51-56W, 海拔: 201米

当前天气观测

该预报发布于35分钟前的15:35 UTC
静风
温度 2°C
湿度 93%
气压 1027 hPa
能見度: 8.0公里
阴天层高于500英尺
未知

METAR: KMQS 131535Z AUTO 00000KT 5SM UP OVC005 02/01 A3033 RMK AO2

时间: 11:10 (16:10 UTC)


TAF: 丢失

超过4000个机场的气象观测和天气预报(METAR&TAF报告)。

可查询的气象台以黄色和红色小点在地图上表示。

将鼠标移到小点上方,可查看气象台名称。

然后点击查看天气观测和预报。

如需切换地图:点击带黑十字的绿色按钮放大地图;点击带横线的绿色按钮缩小地图;或者点击绿色箭头查看邻近地区的地图。


METAR-TAF: